Time;durP1;ratioP1;P1;durP2;ratioP2;P2;SDS_P1;SDS_P2;PMS_P1;PMS_P2;Temp;Humidity;BMP_temperature;BMP_pressure;BME280_temperature;BME280_humidity;BME280_pressure;Samples;Min_cycle;Max_cycle;Signal;HPM_P1;HPM_P2
2022/10/17 04:02:36;;;;;;;1999.90;999.90;;;10.40;99.90;;;;;;5051637;22;20054;-71
2022/10/17 04:05:02;;;;;;;1999.90;999.90;;;10.30;99.90;;;;;;5052703;28;20038;-72
2022/10/17 04:07:27;;;;;;;1999.90;999.90;;;10.40;99.90;;;;;;5054576;28;20045;-71
2022/10/17 04:09:53;;;;;;;1999.90;999.90;;;10.40;99.90;;;;;;5054501;28;20038;-71
2022/10/17 04:12:18;;;;;;;1999.90;999.90;;;10.40;99.90;;;;;;5054206;28;20034;-71
2022/10/17 04:14:44;;;;;;;1999.90;999.90;;;10.30;99.90;;;;;;5054817;28;20112;-71
2022/10/17 04:17:10;;;;;;;1999.90;999.90;;;10.40;99.90;;;;;;5053937;28;20132;-72
2022/10/17 04:19:35;;;;;;;1999.90;999.90;;;10.40;99.90;;;;;;5054443;28;20033;-71
2022/10/17 04:22:02;;;;;;;1999.90;999.90;;;10.30;99.90;;;;;;5055655;28;20041;-71
2022/10/17 04:24:28;;;;;;;1999.90;999.90;;;10.20;99.90;;;;;;5054925;28;20447;-72
2022/10/17 04:26:54;;;;;;;1999.90;999.90;;;10.20;99.90;;;;;;5054576;28;20042;-72
2022/10/17 04:29:20;;;;;;;1999.90;999.90;;;10.20;99.90;;;;;;5054566;28;20029;-72
2022/10/17 04:31:46;;;;;;;1999.90;999.90;;;10.10;99.90;;;;;;5053855;28;20030;-72
2022/10/17 04:34:13;;;;;;;1999.90;999.90;;;10.10;99.90;;;;;;5054250;28;20030;-72
2022/10/17 04:36:38;;;;;;;1999.90;999.90;;;10.00;99.90;;;;;;5053917;28;20033;-72
2022/10/17 04:39:04;;;;;;;1999.90;999.90;;;10.00;99.90;;;;;;5054151;28;20491;-72
2022/10/17 04:41:30;;;;;;;1999.90;999.90;;;10.00;99.90;;;;;;5053996;28;20056;-71
2022/10/17 04:43:55;;;;;;;1999.90;999.90;;;10.00;99.90;;;;;;5054135;28;20049;-72
2022/10/17 04:46:21;;;;;;;1999.90;999.90;;;10.00;99.90;;;;;;5053526;28;20034;-72
2022/10/17 04:48:46;;;;;;;1999.90;999.90;;;10.00;99.90;;;;;;5053965;28;20069;-72
2022/10/17 04:51:16;;;;;;;1999.90;999.90;;;9.90;99.90;;;;;;5053666;28;20403;-72
2022/10/17 04:53:43;;;;;;;1999.90;999.90;;;9.90;99.90;;;;;;5052378;28;20032;-71
2022/10/17 04:56:17;;;;;;;1999.90;999.90;;;9.90;99.90;;;;;;5053513;28;20562;-72
2022/10/17 04:58:44;;;;;;;1999.90;999.90;;;10.00;99.90;;;;;;5053798;28;20041;-71
2022/10/17 05:01:12;;;;;;;1999.90;999.90;;;9.90;99.90;;;;;;5054711;28;20088;-72
2022/10/17 05:03:38;;;;;;;1999.90;999.90;;;9.90;99.90;;;;;;5057195;28;20041;-72
2022/10/17 05:06:12;;;;;;;1999.90;999.90;;;9.90;99.90;;;;;;5056932;28;20038;-71
2022/10/17 05:08:38;;;;;;;1999.90;999.90;;;9.80;99.90;;;;;;5057357;28;20096;-72
2022/10/17 05:11:05;;;;;;;1999.90;999.90;;;9.80;99.90;;;;;;5056659;28;20080;-72
2022/10/17 05:13:31;;;;;;;1999.90;999.90;;;9.80;99.90;;;;;;5057016;28;20037;-72
2022/10/17 05:16:00;;;;;;;1999.90;999.90;;;9.80;99.90;;;;;;5055367;28;20145;-72
2022/10/17 05:18:27;;;;;;;1999.90;999.90;;;9.80;99.90;;;;;;5056916;28;20072;-72
2022/10/17 05:20:53;;;;;;;1999.90;999.90;;;9.80;99.90;;;;;;5056982;28;20029;-72
2022/10/17 05:23:19;;;;;;;1999.90;999.90;;;9.80;99.90;;;;;;5057257;28;20048;-72
2022/10/17 05:25:44;;;;;;;1999.90;999.90;;;9.90;99.90;;;;;;5057090;28;20068;-72
2022/10/17 05:28:16;;;;;;;1999.90;999.90;;;10.00;99.90;;;;;;5055862;28;20033;-72
2022/10/17 05:30:42;;;;;;;1999.90;999.90;;;10.00;99.90;;;;;;5055070;28;20487;-72
2022/10/17 05:33:07;;;;;;;1999.90;999.90;;;9.90;99.90;;;;;;5056836;28;20044;-72
2022/10/17 05:35:33;;;;;;;1999.90;999.90;;;10.00;99.90;;;;;;5056564;28;20045;-72
2022/10/17 05:37:59;;;;;;;1999.90;999.90;;;9.90;99.90;;;;;;5056709;28;20025;-72
2022/10/17 05:40:24;;;;;;;1999.90;999.90;;;9.90;99.90;;;;;;5056138;28;20033;-72
2022/10/17 05:42:50;;;;;;;1999.90;999.90;;;9.90;99.90;;;;;;5056597;28;20049;-72
2022/10/17 05:45:16;;;;;;;1999.90;999.90;;;9.90;99.90;;;;;;5056129;28;20443;-72
2022/10/17 05:47:41;;;;;;;1999.90;999.90;;;9.80;99.90;;;;;;5056638;28;20061;-72
2022/10/17 05:50:08;;;;;;;1999.90;999.90;;;9.80;99.90;;;;;;5056462;28;20029;-72
2022/10/17 05:52:33;;;;;;;1999.90;999.90;;;9.90;99.90;;;;;;5054828;28;20522;-72
2022/10/17 05:54:59;;;;;;;1999.90;999.90;;;9.90;99.90;;;;;;5056089;28;20184;-72
2022/10/17 05:57:25;;;;;;;1999.90;999.90;;;9.90;99.90;;;;;;5056363;28;20065;-72
2022/10/17 05:59:51;;;;;;;1999.90;999.90;;;9.90;99.90;;;;;;5056262;28;20111;-72
2022/10/17 06:02:16;;;;;;;1999.90;999.90;;;9.80;99.90;;;;;;5055888;28;20180;-72
2022/10/17 06:04:44;;;;;;;1999.90;999.90;;;9.90;99.90;;;;;;5055793;28;20029;-72
2022/10/17 06:07:11;;;;;;;1999.90;999.90;;;10.00;99.90;;;;;;5056120;28;20156;-72
2022/10/17 06:09:37;;;;;;;1999.90;999.90;;;10.00;99.90;;;;;;5055950;28;20030;-72
2022/10/17 06:12:03;;;;;;;1999.90;999.90;;;10.10;99.90;;;;;;5055397;28;20563;-72
2022/10/17 06:14:28;;;;;;;1999.90;999.90;;;10.00;99.90;;;;;;5055963;28;20187;-72
2022/10/17 06:16:54;;;;;;;1999.90;999.90;;;10.10;99.90;;;;;;5055668;28;20049;-72
2022/10/17 06:19:19;;;;;;;1999.90;999.90;;;10.10;99.90;;;;;;5055716;28;20026;-72
2022/10/17 06:21:45;;;;;;;1999.90;999.90;;;10.10;99.90;;;;;;5055793;28;20041;-72
2022/10/17 06:24:11;;;;;;;1999.90;999.90;;;10.10;99.90;;;;;;5055797;28;20041;-72
2022/10/17 06:26:36;;;;;;;1999.90;999.90;;;10.10;99.90;;;;;;5055599;28;20038;-72
2022/10/17 06:29:02;;;;;;;1999.90;999.90;;;10.10;99.90;;;;;;5055878;28;20068;-72
2022/10/17 06:31:27;;;;;;;1999.90;999.90;;;10.10;99.90;;;;;;5055512;28;20479;-72
2022/10/17 06:33:53;;;;;;;1999.90;999.90;;;10.20;99.90;;;;;;5055628;28;20044;-72
2022/10/17 06:36:18;;;;;;;1999.90;999.90;;;10.30;99.90;;;;;;5055270;28;20033;-72
2022/10/17 06:38:44;;;;;;;1999.90;999.90;;;10.30;99.90;;;;;;5055544;28;20029;-72
2022/10/17 06:41:13;;;;;;;1999.90;999.90;;;10.40;99.90;;;;;;5055637;28;20041;-72
2022/10/17 06:43:45;;;;;;;1999.90;999.90;;;10.40;99.90;;;;;;5055317;28;20072;-72
2022/10/17 06:46:11;;;;;;;1999.90;999.90;;;10.40;99.90;;;;;;5055328;28;20064;-72
2022/10/17 06:48:36;;;;;;;1999.90;999.90;;;10.40;99.90;;;;;;5055483;28;20029;-72
2022/10/17 06:51:04;;;;;;;1999.90;999.90;;;10.50;99.90;;;;;;5055861;28;20029;-72
2022/10/17 06:53:31;;;;;;;1999.90;999.90;;;10.60;99.90;;;;;;5055693;28;20124;-72
2022/10/17 06:56:01;;;;;;;1999.90;999.90;;;10.60;99.90;;;;;;5054785;28;20033;-72
2022/10/17 06:58:28;;;;;;;1999.90;999.90;;;10.70;99.90;;;;;;5053969;28;20029;-72
2022/10/17 07:01:08;;;;;;;1999.90;999.90;;;10.80;99.90;;;;;;5054949;28;20029;-73
2022/10/17 07:03:34;;;;;;;1999.90;999.90;;;10.90;99.90;;;;;;5054908;28;20042;-72
2022/10/17 07:06:00;;;;;;;1999.90;999.90;;;11.00;99.90;;;;;;5054892;28;20056;-72
2022/10/17 07:08:26;;;;;;;1999.90;999.90;;;11.00;99.90;;;;;;5055398;28;20037;-72
2022/10/17 07:10:52;;;;;;;1999.90;999.90;;;11.10;99.90;;;;;;5054936;28;20037;-72
2022/10/17 07:13:18;;;;;;;1999.90;999.90;;;11.20;99.90;;;;;;5055188;28;20038;-72
2022/10/17 07:15:44;;;;;;;1999.90;999.90;;;11.30;99.90;;;;;;5055037;28;20030;-72
2022/10/17 07:18:09;;;;;;;1999.90;999.90;;;11.50;99.90;;;;;;5060408;28;20037;-72
2022/10/17 07:20:35;;;;;;;1999.90;999.90;;;11.70;99.90;;;;;;5064838;28;20025;-72
2022/10/17 07:23:01;;;;;;;1999.90;999.90;;;11.70;99.90;;;;;;5054826;28;20046;-72
2022/10/17 07:25:27;;;;;;;1999.90;999.90;;;11.90;99.90;;;;;;5054541;28;20104;-73
2022/10/17 07:27:53;;;;;;;1999.90;999.90;;;12.00;99.90;;;;;;5054996;28;20040;-73
2022/10/17 07:30:20;;;;;;;1999.90;999.90;;;12.20;99.90;;;;;;5056035;28;20033;-73
2022/10/17 07:32:46;;;;;;;1999.90;999.90;;;12.30;99.90;;;;;;5075067;28;20466;-73
2022/10/17 07:35:12;;;;;;;1999.90;999.90;;;12.40;99.90;;;;;;5065342;28;20064;-73
2022/10/17 07:37:37;;;;;;;1999.90;999.90;;;12.60;99.90;;;;;;5061317;28;20368;-73
2022/10/17 07:40:05;;;;;;;1999.90;999.90;;;12.70;99.90;;;;;;5063743;28;20044;-77
2022/10/17 07:42:32;;;;;;;1999.90;999.90;;;12.80;99.90;;;;;;5065046;28;20089;-73
2022/10/17 07:44:58;;;;;;;1999.90;999.90;;;12.90;99.90;;;;;;5059628;28;20029;-74
2022/10/17 07:47:24;;;;;;;1999.90;999.90;;;12.90;99.90;;;;;;5054481;28;20034;-73
2022/10/17 07:49:49;;;;;;;1999.90;999.90;;;13.00;99.90;;;;;;5054586;28;20112;-73
2022/10/17 07:52:16;;;;;;;1999.90;999.90;;;13.00;99.90;;;;;;5054609;28;20097;-75
2022/10/17 07:54:42;;;;;;;1999.90;999.90;;;13.10;99.90;;;;;;5054111;28;20033;-72
2022/10/17 07:57:08;;;;;;;1999.90;999.90;;;13.20;99.90;;;;;;5054462;28;20092;-73
2022/10/17 07:59:35;;;;;;;1999.90;999.90;;;13.30;99.90;;;;;;5052993;28;20409;-73
2022/10/17 08:02:01;;;;;;;1999.90;999.90;;;13.30;99.90;;;;;;5053562;28;20037;-73
2022/10/17 08:04:27;;;;;;;1999.90;999.90;;;13.40;99.90;;;;;;5054217;28;20060;-72
2022/10/17 08:06:53;;;;;;;1999.90;999.90;;;13.40;99.90;;;;;;5054153;28;20504;-73
2022/10/17 08:09:20;;;;;;;1999.90;999.90;;;13.50;99.90;;;;;;5052851;28;20041;-72
2022/10/17 08:11:45;;;;;;;1999.90;999.90;;;13.60;99.90;;;;;;5056038;28;20443;-73
2022/10/17 08:14:12;;;;;;;1999.90;999.90;;;13.70;99.90;;;;;;5074595;28;20044;-73
2022/10/17 08:16:39;;;;;;;1999.90;999.90;;;13.80;99.90;;;;;;5074209;28;20495;-73
2022/10/17 08:19:04;;;;;;;1999.90;999.90;;;13.80;99.90;;;;;;5074545;28;20064;-75
2022/10/17 08:21:30;;;;;;;1999.90;999.90;;;13.90;99.90;;;;;;5074166;28;20121;-74
2022/10/17 08:23:56;;;;;;;1999.90;999.90;;;14.00;99.90;;;;;;5074422;28;20144;-73
2022/10/17 08:26:22;;;;;;;1999.90;999.90;;;14.10;99.90;;;;;;5074129;28;20029;-72
2022/10/17 08:28:48;;;;;;;1999.90;999.90;;;14.20;99.90;;;;;;5074224;28;20091;-73
2022/10/17 08:31:19;;;;;;;1999.90;999.90;;;14.30;99.90;;;;;;5073703;28;20033;-72
2022/10/17 08:33:46;;;;;;;1999.90;999.90;;;14.40;99.90;;;;;;5074238;28;20453;-72
2022/10/17 08:36:14;;;;;;;1999.90;999.90;;;14.50;99.90;;;;;;5066138;28;20041;-72
2022/10/17 08:38:41;;;;;;;1999.90;999.90;;;14.60;99.90;;;;;;5057462;28;20634;-77
2022/10/17 08:41:36;;;;;;;1999.90;999.90;;;14.70;99.90;;;;;;5064752;28;20029;-72
2022/10/17 08:44:43;;;;;;;1999.90;999.90;;;14.80;99.90;;;;;;5037003;28;20108;-72
2022/10/17 08:47:40;;;;;;;1999.90;999.90;;;14.90;99.90;;;;;;5057661;28;20038;-73
2022/10/17 08:50:14;;;;;;;1999.90;999.90;;;15.00;99.90;;;;;;5057946;28;20545;-74
2022/10/17 08:53:03;;;;;;;1999.90;999.90;;;15.10;99.90;;;;;;5057730;28;20056;-72
2022/10/17 08:55:35;;;;;;;1999.90;999.90;;;15.30;99.90;;;;;;5066730;28;20033;-73
2022/10/17 08:58:01;;;;;;;1999.90;999.90;;;15.50;99.90;;;;;;5077834;28;20025;-73
2022/10/17 09:00:29;;;;;;;1999.90;999.90;;;15.60;99.90;;;;;;5076777;28;20044;-72
2022/10/17 09:03:26;;;;;;;1999.90;999.90;;;15.70;99.90;;;;;;5077316;28;20037;-73
2022/10/17 09:06:03;;;;;;;1999.90;999.90;;;15.80;99.90;;;;;;5071831;28;20048;-72
2022/10/17 09:09:00;;;;;;;1999.90;999.90;;;15.90;99.90;;;;;;5077549;28;20044;-72
2022/10/17 09:12:01;;;;;;;1999.90;999.90;;;16.10;99.90;;;;;;5071630;28;20068;-72
2022/10/17 09:14:51;;;;;;;1999.90;999.90;;;16.20;99.90;;;;;;5077532;28;20037;-72
2022/10/17 09:17:17;;;;;;;1999.90;999.90;;;16.40;99.90;;;;;;5077503;28;20033;-73
2022/10/17 09:19:56;;;;;;;1999.90;999.90;;;16.60;99.90;;;;;;5077154;28;20039;-72
2022/10/17 09:22:26;;;;;;;1999.90;999.90;;;16.70;99.90;;;;;;5077877;28;20032;-72
2022/10/17 09:24:57;;;;;;;1999.90;999.90;;;16.90;99.90;;;;;;5079789;28;20036;-72
2022/10/17 09:27:40;;;;;;;1999.90;999.90;;;17.10;99.90;;;;;;5077658;28;20493;-73
2022/10/17 09:30:18;;;;;;;1999.90;999.90;;;17.40;99.90;;;;;;5068125;28;20455;-74
2022/10/17 09:32:46;;;;;;;1999.90;999.90;;;17.60;99.90;;;;;;5063797;28;20129;-72
2022/10/17 09:35:13;;;;;;;1999.90;999.90;;;17.80;99.90;;;;;;5070475;28;20128;-72
2022/10/17 09:37:40;;;;;;;1999.90;999.90;;;18.00;99.90;;;;;;5067804;28;20037;-71
2022/10/17 09:40:11;;;;;;;1999.90;999.90;;;18.20;99.90;;;;;;5066920;28;20788;-71
2022/10/17 09:42:38;;;;;;;1999.90;999.90;;;18.30;99.90;;;;;;5076924;28;20040;-71
2022/10/17 09:45:17;;;;;;;1999.90;999.90;;;18.50;99.90;;;;;;5076508;28;20040;-72
2022/10/17 09:47:49;;;;;;;1999.90;999.90;;;18.60;99.90;;;;;;5075836;28;20064;-72
2022/10/17 09:50:22;;;;;;;1999.90;999.90;;;18.70;99.90;;;;;;5076234;28;20090;-71
2022/10/17 09:52:49;;;;;;;1999.90;999.90;;;19.00;99.90;;;;;;5076533;28;20415;-72
2022/10/17 09:55:24;;;;;;;1999.90;999.90;;;19.10;99.90;;;;;;5076239;28;20552;-71
2022/10/17 09:57:58;;;;;;;1999.90;999.90;;;19.30;99.90;;;;;;5074796;28;20029;-72
2022/10/17 10:00:27;;;;;;;1999.90;999.90;;;19.40;99.90;;;;;;5075697;28;20033;-72
2022/10/17 10:03:07;;;;;;;1999.90;999.90;;;19.50;99.90;;;;;;5076117;28;20048;-71
2022/10/17 10:05:33;;;;;;;1999.90;999.90;;;19.70;99.90;;;;;;5076024;28;20490;-72
2022/10/17 10:08:17;;;;;;;1999.90;999.90;;;19.80;99.90;;;;;;5071491;28;20040;-72
2022/10/17 10:10:43;;;;;;;1999.90;999.90;;;20.00;99.90;;;;;;5073250;28;20020;-72
2022/10/17 10:13:12;;;;;;;1999.90;999.90;;;20.00;99.90;;;;;;5076836;28;20112;-73
2022/10/17 10:15:45;;;;;;;1999.90;999.90;;;20.00;99.90;;;;;;5056582;28;20038;-70
2022/10/17 10:18:34;;;;;;;1999.90;999.90;;;20.10;99.90;;;;;;5058405;28;20041;-70
2022/10/17 10:21:02;;;;;;;1999.90;999.90;;;20.20;99.90;;;;;;5046933;28;20057;-70
2022/10/17 10:23:28;;;;;;;1999.90;999.90;;;20.20;99.90;;;;;;5054061;28;20533;-70
2022/10/17 10:26:21;;;;;;;1999.90;999.90;;;20.40;99.90;;;;;;5054534;28;20095;-70
2022/10/17 10:29:06;;;;;;;1999.90;999.90;;;20.40;99.90;;;;;;5055800;28;20133;-70
2022/10/17 10:31:38;;;;;;;1999.90;999.90;;;20.50;99.90;;;;;;5055543;28;20029;-70
2022/10/17 10:34:25;;;;;;;1999.90;999.90;;;20.60;99.90;;;;;;5054726;28;20077;-70
2022/10/17 10:37:13;;;;;;;1999.90;999.90;;;20.70;99.90;;;;;;5054978;28;20045;-71
2022/10/17 10:39:48;;;;;;;1999.90;999.90;;;20.90;99.90;;;;;;5055581;28;20029;-70
2022/10/17 10:42:38;;;;;;;1999.90;999.90;;;21.00;99.90;;;;;;5055417;28;20110;-70
2022/10/17 10:45:14;;;;;;;1999.90;999.90;;;21.10;99.90;;;;;;5049677;28;20045;-70
2022/10/17 10:48:02;;;;;;;1999.90;999.90;;;21.10;99.90;;;;;;5055131;28;20061;-70
2022/10/17 10:50:41;;;;;;;1999.90;999.90;;;21.20;99.90;;;;;;5055311;28;20041;-70
2022/10/17 10:53:19;;;;;;;1999.90;999.90;;;21.40;99.90;;;;;;5055367;28;20456;-70
2022/10/17 10:56:08;;;;;;;1999.90;999.90;;;21.50;99.90;;;;;;5053384;28;20041;-70
2022/10/17 10:58:59;;;;;;;1999.90;999.90;;;21.60;99.90;;;;;;5048456;28;20053;-71
2022/10/17 11:01:34;;;;;;;1999.90;999.90;;;21.70;99.90;;;;;;5055024;28;20069;-71
2022/10/17 11:04:12;;;;;;;1999.90;999.90;;;21.80;99.90;;;;;;5055114;28;20042;-70
2022/10/17 11:06:43;;;;;;;1999.90;999.90;;;21.90;99.90;;;;;;5055366;28;20465;-74
2022/10/17 11:09:15;;;;;;;1999.90;999.90;;;22.00;99.90;;;;;;5053815;28;20045;-70
2022/10/17 11:12:09;;;;;;;1999.90;999.90;;;22.10;99.90;;;;;;5055173;28;20507;-71
2022/10/17 11:15:04;;;;;;;1999.90;999.90;;;22.30;99.90;;;;;;5049326;28;20049;-70
2022/10/17 11:17:44;;;;;;;1999.90;999.90;;;22.30;99.90;;;;;;5033535;28;20041;-71
2022/10/17 11:20:31;;;;;;;1999.90;999.90;;;22.50;99.90;;;;;;5055658;28;20033;-71
2022/10/17 11:23:13;;;;;;;1999.90;999.90;;;22.40;99.90;;;;;;5056189;28;20037;-71
2022/10/17 11:25:39;;;;;;;1999.90;999.90;;;22.60;99.90;;;;;;5055880;28;20021;-71
2022/10/17 11:28:14;;;;;;;1999.90;999.90;;;22.60;99.90;;;;;;5056085;28;20044;-71
2022/10/17 11:30:59;;;;;;;1999.90;999.90;;;22.70;99.90;;;;;;5056174;28;20120;-71
2022/10/17 11:33:30;;;;;;;1999.90;999.90;;;22.80;99.90;;;;;;5056246;28;20108;-71
2022/10/17 11:36:01;;;;;;;1999.90;999.90;;;22.90;99.90;;;;;;5055474;28;20029;-71
2022/10/17 11:39:02;;;;;;;1999.90;999.90;;;23.10;99.90;;;;;;5056367;28;20029;-71
2022/10/17 11:41:30;;;;;;;1999.90;999.90;;;23.10;99.90;;;;;;5034910;28;20053;-71
2022/10/17 11:44:03;;;;;;;1999.90;999.90;;;23.10;99.90;;;;;;5055844;28;20074;-71
2022/10/17 11:46:30;;;;;;;1999.90;999.90;;;23.10;99.90;;;;;;5056574;28;20033;-71
2022/10/17 11:49:14;;;;;;;1999.90;999.90;;;23.10;99.90;;;;;;5057203;28;20491;-71
2022/10/17 11:52:05;;;;;;;1999.90;999.90;;;23.20;99.90;;;;;;5057456;28;20466;-71
2022/10/17 11:54:52;;;;;;;1999.90;999.90;;;23.20;99.90;;;;;;5035430;28;20117;-71
2022/10/17 11:57:41;;;;;;;1999.90;999.90;;;23.30;99.90;;;;;;5053863;28;20431;-71
2022/10/17 12:00:15;;;;;;;1999.90;999.90;;;23.40;99.90;;;;;;5054772;28;20026;-71
2022/10/17 12:02:52;;;;;;;1999.90;999.90;;;23.50;99.90;;;;;;5054903;28;20419;-71
2022/10/17 12:05:32;;;;;;;1999.90;999.90;;;23.60;99.90;;;;;;5054290;28;20043;-71
2022/10/17 12:08:29;;;;;;;1999.90;999.90;;;23.70;99.90;;;;;;5054656;28;20039;-71
2022/10/17 12:11:05;;;;;;;1999.90;999.90;;;23.80;99.90;;;;;;5038348;28;20041;-71
2022/10/17 12:13:31;;;;;;;1999.90;999.90;;;23.80;99.90;;;;;;5054934;28;20042;-71
2022/10/17 12:16:16;;;;;;;1999.90;999.90;;;23.90;99.90;;;;;;5054702;28;20030;-71
2022/10/17 12:18:42;;;;;;;1999.90;999.90;;;24.10;99.90;;;;;;5055163;28;20038;-71
2022/10/17 12:21:07;;;;;;;1999.90;999.90;;;24.30;99.90;;;;;;5054494;28;20030;-71
2022/10/17 12:23:35;;;;;;;1999.90;999.90;;;24.20;99.90;;;;;;5054474;28;20046;-71
2022/10/17 12:26:03;;;;;;;1999.90;999.90;;;24.20;99.90;;;;;;5053143;28;20040;-71
2022/10/17 12:28:46;;;;;;;1999.90;999.90;;;24.30;99.90;;;;;;5054420;28;20033;-71
2022/10/17 12:31:14;;;;;;;1999.90;999.90;;;24.30;99.90;;;;;;5054535;28;20455;-71
2022/10/17 12:33:50;;;;;;;1999.90;999.90;;;24.30;99.90;;;;;;5054541;28;20034;-71
2022/10/17 12:36:16;;;;;;;1999.90;999.90;;;24.40;99.90;;;;;;5054236;28;20033;-71
2022/10/17 12:38:47;;;;;;;1999.90;999.90;;;24.40;99.90;;;;;;5054416;28;20029;-71
2022/10/17 12:41:12;;;;;;;1999.90;999.90;;;24.50;99.90;;;;;;5054390;28;20036;-71
2022/10/17 12:43:48;;;;;;;1999.90;999.90;;;24.60;99.90;;;;;;5054142;28;20522;-71
2022/10/17 12:46:44;;;;;;;1999.90;999.90;;;24.60;99.90;;;;;;5054334;28;20036;-71
2022/10/17 12:49:48;;;;;;;1999.90;999.90;;;24.60;99.90;;;;;;5054445;28;20061;-71
2022/10/17 12:52:17;;;;;;;1999.90;999.90;;;24.50;99.90;;;;;;5051878;28;20042;-72
2022/10/17 12:55:00;;;;;;;1999.90;999.90;;;24.40;99.90;;;;;;5053964;28;20454;-72
2022/10/17 12:58:01;;;;;;;1999.90;999.90;;;24.50;99.90;;;;;;5054120;28;20088;-72
2022/10/17 13:00:47;;;;;;;1999.90;999.90;;;24.30;99.90;;;;;;5047715;28;20053;-73
2022/10/17 13:03:20;;;;;;;1999.90;999.90;;;24.50;99.90;;;;;;5053976;28;20037;-72
2022/10/17 13:05:53;;;;;;;1999.90;999.90;;;24.50;99.90;;;;;;5053617;28;20041;-72
2022/10/17 13:08:29;;;;;;;1999.90;999.90;;;24.40;99.90;;;;;;5054320;28;20087;-74
2022/10/17 13:10:55;;;;;;;1999.90;999.90;;;24.40;99.90;;;;;;5053516;28;20120;-72
2022/10/17 13:13:40;;;;;;;1999.90;999.90;;;24.30;99.90;;;;;;5052393;28;20033;-73
2022/10/17 13:16:06;;;;;;;1999.90;999.90;;;24.40;99.90;;;;;;5054766;28;20083;-76
2022/10/17 13:18:32;;;;;;;1999.90;999.90;;;24.30;99.90;;;;;;5052923;28;20084;-73
2022/10/17 13:21:14;;;;;;;1999.90;999.90;;;24.20;99.90;;;;;;5054362;28;20556;-74
2022/10/17 13:23:40;;;;;;;1999.90;999.90;;;24.10;99.90;;;;;;5056024;28;20077;-73
2022/10/17 13:26:18;;;;;;;1999.90;999.90;;;24.10;99.90;;;;;;5056611;28;20064;-72
2022/10/17 13:28:44;;;;;;;1999.90;999.90;;;24.00;99.90;;;;;;5055475;28;20087;-73
2022/10/17 13:31:43;;;;;;;1999.90;999.90;;;23.90;99.90;;;;;;5057167;28;20076;-73
2022/10/17 13:34:21;;;;;;;1999.90;999.90;;;24.00;99.90;;;;;;5033637;28;20505;-72
2022/10/17 13:36:49;;;;;;;1999.90;999.90;;;24.00;99.90;;;;;;5057102;28;20096;-73
2022/10/17 13:39:20;;;;;;;1999.90;999.90;;;24.00;99.90;;;;;;5056843;28;20048;-72
2022/10/17 13:41:46;;;;;;;1999.90;999.90;;;24.00;99.90;;;;;;5057214;28;20055;-73
2022/10/17 13:44:19;;;;;;;1999.90;999.90;;;24.00;99.90;;;;;;5056927;28;20042;-74
2022/10/17 13:46:45;;;;;;;1999.90;999.90;;;24.20;99.90;;;;;;5057103;28;20649;-73
2022/10/17 13:49:17;;;;;;;1999.90;999.90;;;24.30;99.90;;;;;;5056762;28;20045;-73
2022/10/17 13:51:50;;;;;;;1999.90;999.90;;;24.30;99.90;;;;;;5056546;28;20118;-73
2022/10/17 13:54:40;;;;;;;1999.90;999.90;;;24.30;99.90;;;;;;5056559;28;20033;-73
2022/10/17 13:57:26;;;;;;;1999.90;999.90;;;24.30;99.90;;;;;;5056749;28;20034;-74
2022/10/17 14:00:25;;;;;;;1999.90;999.90;;;24.30;99.90;;;;;;5056868;28;20499;-73
2022/10/17 14:02:51;;;;;;;1999.90;999.90;;;24.30;99.90;;;;;;5032866;28;20557;-74
2022/10/17 14:05:19;;;;;;;1999.90;999.90;;;24.40;99.90;;;;;;5055977;28;20081;-73
2022/10/17 14:08:00;;;;;;;1999.90;999.90;;;24.50;99.90;;;;;;5056703;28;20042;-74
2022/10/17 14:10:35;;;;;;;1999.90;999.90;;;24.50;99.90;;;;;;5056331;28;20030;-74
2022/10/17 14:13:03;;;;;;;1999.90;999.90;;;24.40;99.90;;;;;;5057533;28;20104;-74
2022/10/17 14:15:31;;;;;;;1999.90;999.90;;;24.40;99.90;;;;;;5058919;28;20087;-73
2022/10/17 14:18:08;;;;;;;1999.90;999.90;;;24.30;99.90;;;;;;5055925;28;20045;-74
2022/10/17 14:20:35;;;;;;;1999.90;999.90;;;24.30;99.90;;;;;;5056640;28;20033;-73
2022/10/17 14:23:01;;;;;;;1999.90;999.90;;;24.20;99.90;;;;;;5056521;28;20486;-73
2022/10/17 14:25:35;;;;;;;1999.90;999.90;;;24.10;99.90;;;;;;5054715;28;20025;-73
2022/10/17 14:28:02;;;;;;;1999.90;999.90;;;24.10;99.90;;;;;;5056274;28;20049;-73
2022/10/17 14:30:34;;;;;;;1999.90;999.90;;;24.10;99.90;;;;;;5055895;28;20037;-72
2022/10/17 14:33:02;;;;;;;1999.90;999.90;;;24.00;99.90;;;;;;5055897;28;20033;-73
2022/10/17 14:35:28;;;;;;;1999.90;999.90;;;23.90;99.90;;;;;;5056261;28;20036;-73
2022/10/17 14:38:00;;;;;;;1999.90;999.90;;;24.00;99.90;;;;;;5056298;28;20746;-73
2022/10/17 14:40:27;;;;;;;1999.90;999.90;;;23.90;99.90;;;;;;5055957;28;20545;-73
2022/10/17 14:42:56;;;;;;;1999.90;999.90;;;23.80;99.90;;;;;;5055949;28;20029;-73
2022/10/17 14:45:27;;;;;;;1999.90;999.90;;;23.70;99.90;;;;;;5055787;28;20120;-73
2022/10/17 14:47:59;;;;;;;1999.90;999.90;;;23.60;99.90;;;;;;5055326;28;20093;-79
2022/10/17 14:50:27;;;;;;;1999.90;999.90;;;23.60;99.90;;;;;;5053834;28;20061;-73
2022/10/17 14:53:17;;;;;;;1999.90;999.90;;;23.60;99.90;;;;;;5053781;28;20030;-73
2022/10/17 14:55:58;;;;;;;1999.90;999.90;;;23.70;99.90;;;;;;5055275;28;20100;-73
2022/10/17 14:58:29;;;;;;;1999.90;999.90;;;23.70;99.90;;;;;;5055452;28;20037;-73
2022/10/17 15:00:56;;;;;;;1999.90;999.90;;;23.60;99.90;;;;;;5054835;28;20037;-72
2022/10/17 15:03:22;;;;;;;1999.90;999.90;;;23.60;99.90;;;;;;5055047;28;20076;-72
2022/10/17 15:05:49;;;;;;;1999.90;999.90;;;23.60;99.90;;;;;;5054777;28;20483;-72
2022/10/17 15:08:17;;;;;;;1999.90;999.90;;;23.50;99.90;;;;;;5054858;28;20043;-72
2022/10/17 15:10:44;;;;;;;1999.90;999.90;;;23.60;99.90;;;;;;5054825;28;20032;-72
2022/10/17 15:13:11;;;;;;;1999.90;999.90;;;23.60;99.90;;;;;;5054659;28;20105;-72
2022/10/17 15:15:38;;;;;;;1999.90;999.90;;;23.80;99.90;;;;;;5053718;28;20033;-72
2022/10/17 15:18:04;;;;;;;1999.90;999.90;;;23.90;99.90;;;;;;5054439;28;20037;-72
2022/10/17 15:20:30;;;;;;;1999.90;999.90;;;24.00;99.90;;;;;;5054654;28;20087;-72
2022/10/17 15:22:59;;;;;;;1999.90;999.90;;;24.40;99.90;;;;;;5055381;28;20583;-74
2022/10/17 15:25:25;;;;;;;1999.90;999.90;;;24.90;99.90;;;;;;5053807;28;20418;-73
2022/10/17 15:27:51;;;;;;;1999.90;999.90;;;25.30;99.90;;;;;;5055096;28;20039;-73
2022/10/17 15:30:22;;;;;;;1999.90;999.90;;;25.40;99.90;;;;;;5055847;28;20056;-73
2022/10/17 15:32:49;;;;;;;1999.90;999.90;;;25.40;99.90;;;;;;5055442;28;20104;-73
2022/10/17 15:35:15;;;;;;;1999.90;999.90;;;25.30;99.90;;;;;;5055314;28;20030;-73
2022/10/17 15:37:41;;;;;;;1999.90;999.90;;;25.10;99.90;;;;;;5055978;28;20038;-72
2022/10/17 15:40:18;;;;;;;1999.90;999.90;;;24.90;99.90;;;;;;5053690;28;20034;-72
2022/10/17 15:42:44;;;;;;;1999.90;999.90;;;24.60;99.90;;;;;;5055207;28;20037;-72
2022/10/17 15:45:15;;;;;;;1999.90;999.90;;;24.30;99.90;;;;;;5054034;28;20034;-72
2022/10/17 15:47:42;;;;;;;1999.90;999.90;;;24.00;99.90;;;;;;5055243;28;20495;-72
2022/10/17 15:50:13;;;;;;;1999.90;999.90;;;23.80;99.90;;;;;;5053462;28;20482;-72
2022/10/17 15:52:40;;;;;;;1999.90;999.90;;;23.60;99.90;;;;;;5054786;28;20476;-72
2022/10/17 15:55:06;;;;;;;1999.90;999.90;;;23.30;99.90;;;;;;5054413;28;20030;-71
2022/10/17 15:57:36;;;;;;;1999.90;999.90;;;23.00;99.90;;;;;;5054119;28;20128;-72
2022/10/17 16:00:05;;;;;;;1999.90;999.90;;;22.70;99.90;;;;;;5054699;28;20029;-71
2022/10/17 16:02:32;;;;;;;1999.90;999.90;;;22.30;99.90;;;;;;5054345;28;20488;-72
2022/10/17 16:04:58;;;;;;;1999.90;999.90;;;22.00;99.90;;;;;;5053324;28;20049;-72
2022/10/17 16:07:24;;;;;;;1999.90;999.90;;;21.70;99.90;;;;;;5054883;28;20111;-72
2022/10/17 16:09:49;;;;;;;1999.90;999.90;;;21.40;99.90;;;;;;5054608;28;20553;-71
2022/10/17 16:12:26;;;;;;;1999.90;999.90;;;21.10;99.90;;;;;;5054098;28;20479;-72
2022/10/17 16:14:51;;;;;;;1999.90;999.90;;;20.80;99.90;;;;;;5073188;22;20042;-75
2022/10/17 16:17:17;;;;;;;1999.90;999.90;;;20.60;99.90;;;;;;5054596;28;20068;-75
2022/10/17 16:19:43;;;;;;;1999.90;999.90;;;20.30;99.90;;;;;;5054613;28;20060;-78
2022/10/17 16:22:35;;;;;;;1999.90;999.90;;;20.00;99.90;;;;;;5054327;28;20029;-75
2022/10/17 16:25:09;;;;;;;1999.90;999.90;;;19.70;99.90;;;;;;5051732;28;20037;-75